createdAt,value
2022-11-27T00:00:25.609Z,549.88
2022-11-27T00:01:25.613Z,550.09
2022-11-27T00:02:25.672Z,549.3
2022-11-27T00:03:25.742Z,549.84
2022-11-27T00:04:25.612Z,549.6
2022-11-27T00:05:25.620Z,549.81
2022-11-27T00:06:25.613Z,550.39
2022-11-27T00:07:25.681Z,549.87
2022-11-27T00:08:25.671Z,549.82
2022-11-27T00:09:25.619Z,549.16
2022-11-27T00:10:25.627Z,548.51
2022-11-27T00:11:25.632Z,548.16
2022-11-27T00:12:25.633Z,547.33
2022-11-27T00:13:25.651Z,545.92
2022-11-27T00:14:25.638Z,545.69
2022-11-27T00:15:25.641Z,545.32
2022-11-27T00:16:25.706Z,544.42
2022-11-27T00:17:25.635Z,543.58
2022-11-27T00:18:25.656Z,543.17
2022-11-27T00:19:25.639Z,542.17
2022-11-27T00:20:29.559Z,541.81
2022-11-27T00:21:25.648Z,540.47
2022-11-27T00:22:25.641Z,540.16
2022-11-27T00:23:25.698Z,539.19
2022-11-27T00:24:25.646Z,538.53
2022-11-27T00:25:25.649Z,537.95
2022-11-27T00:26:25.660Z,538.14
2022-11-27T00:27:25.646Z,537.36
2022-11-27T00:28:25.668Z,536.76
2022-11-27T00:29:25.656Z,536.8
2022-11-27T00:30:25.653Z,536.84
2022-11-27T00:31:25.700Z,536.32
2022-11-27T00:32:25.659Z,536.96
2022-11-27T00:33:25.680Z,535.95
2022-11-27T00:34:25.662Z,535.32
2022-11-27T00:35:25.656Z,535.29
2022-11-27T00:36:25.666Z,535.09
2022-11-27T00:37:25.666Z,535.27
2022-11-27T00:38:25.693Z,535.11
2022-11-27T00:39:25.692Z,534.48
2022-11-27T00:40:25.667Z,534.47
2022-11-27T00:41:25.677Z,535.44
2022-11-27T00:42:25.708Z,535.48
2022-11-27T00:43:25.722Z,535.44
2022-11-27T00:44:25.681Z,535.99
2022-11-27T00:45:25.683Z,535.55
2022-11-27T00:46:28.583Z,536.76
2022-11-27T00:47:25.679Z,537.23
2022-11-27T00:48:25.720Z,537.77
2022-11-27T00:49:25.685Z,538.13
2022-11-27T00:50:25.681Z,538.36
2022-11-27T00:51:25.691Z,538.62
2022-11-27T00:52:25.687Z,538.18
2022-11-27T00:53:25.715Z,538.97
2022-11-27T00:54:25.688Z,539.51
2022-11-27T00:55:25.717Z,539.96
2022-11-27T00:56:25.699Z,540.91
2022-11-27T00:57:25.700Z,540.72
2022-11-27T00:58:25.731Z,541.1
2022-11-27T00:59:25.704Z,540.32
2022-11-27T01:00:25.699Z,540.89
2022-11-27T01:01:25.751Z,541.28
2022-11-27T01:02:25.747Z,541.31
2022-11-27T01:03:25.728Z,541.08
2022-11-27T01:04:25.705Z,541.84
2022-11-27T01:05:25.705Z,541.91
2022-11-27T01:06:25.709Z,541.5
2022-11-27T01:07:25.751Z,542.04
2022-11-27T01:08:25.737Z,541.46
2022-11-27T01:09:28.472Z,542.85
2022-11-27T01:10:25.726Z,542.81
2022-11-27T01:11:25.818Z,543.56
2022-11-27T01:12:25.723Z,543.54
2022-11-27T01:13:25.743Z,542.68
2022-11-27T01:14:25.729Z,543.7
2022-11-27T01:15:25.728Z,543.53
2022-11-27T01:16:25.852Z,542.92
2022-11-27T01:17:25.731Z,542.69
2022-11-27T01:18:25.785Z,542.75
2022-11-27T01:19:25.728Z,543.68
2022-11-27T01:20:26.766Z,543.61
2022-11-27T01:21:25.731Z,543.58
2022-11-27T01:22:25.741Z,544.17
2022-11-27T01:23:25.780Z,544.52
2022-11-27T01:24:25.735Z,544.54
2022-11-27T01:25:27.141Z,544.54
2022-11-27T01:26:25.739Z,544.93
2022-11-27T01:27:25.769Z,545.89
2022-11-27T01:28:25.779Z,545.67
2022-11-27T01:29:25.753Z,545.93
2022-11-27T01:30:25.745Z,545.91
2022-11-27T01:31:28.851Z,546.26
2022-11-27T01:32:25.750Z,545.54
2022-11-27T01:33:25.773Z,545.37
2022-11-27T01:34:25.756Z,544.19
2022-11-27T01:35:25.762Z,543.37
2022-11-27T01:36:25.762Z,542.64
2022-11-27T01:37:25.768Z,542.1
2022-11-27T01:38:28.814Z,541
2022-11-27T01:39:25.758Z,540.17
2022-11-27T01:40:25.766Z,538.93
2022-11-27T01:41:25.798Z,537.54
2022-11-27T01:42:28.836Z,536.14
2022-11-27T01:43:25.786Z,536.21
2022-11-27T01:44:25.773Z,534.67
2022-11-27T01:45:25.774Z,534.34
2022-11-27T01:46:25.790Z,534.27
2022-11-27T01:47:25.774Z,533.51
2022-11-27T01:48:25.803Z,532.49
2022-11-27T01:49:25.780Z,533.06
2022-11-27T01:50:25.781Z,533.29
2022-11-27T01:51:25.788Z,533.66
2022-11-27T01:52:25.781Z,533.44
2022-11-27T01:53:25.803Z,533.03
2022-11-27T01:54:25.790Z,533.35
2022-11-27T01:55:25.788Z,532.94
2022-11-27T01:56:25.787Z,533.58
2022-11-27T01:57:25.797Z,533.47
2022-11-27T01:58:25.841Z,534.11
2022-11-27T01:59:25.790Z,534.28
2022-11-27T02:00:25.799Z,534.05
2022-11-27T02:01:25.864Z,533.67
2022-11-27T02:02:25.940Z,533.06
2022-11-27T02:03:25.864Z,533.46
2022-11-27T02:04:25.806Z,532.98
2022-11-27T02:05:25.805Z,533.01
2022-11-27T02:06:25.802Z,532.03
2022-11-27T02:07:25.889Z,530.98
2022-11-27T02:08:25.831Z,529.8
2022-11-27T02:09:25.817Z,529.26
2022-11-27T02:10:25.806Z,528.43
2022-11-27T02:11:25.821Z,527.27
2022-11-27T02:12:25.821Z,526.01
2022-11-27T02:13:25.849Z,525.8
2022-11-27T02:14:31.827Z,525.51
2022-11-27T02:15:25.827Z,525.29
2022-11-27T02:16:25.915Z,523.87
2022-11-27T02:17:25.816Z,523.48
2022-11-27T02:18:25.841Z,523.99
2022-11-27T02:19:25.820Z,523.38
2022-11-27T02:20:25.824Z,524.11
2022-11-27T02:21:25.836Z,524.72
2022-11-27T02:22:25.843Z,525.65
2022-11-27T02:23:25.832Z,525.89
2022-11-27T02:24:25.829Z,526.06
2022-11-27T02:25:28.396Z,526.26
2022-11-27T02:26:25.838Z,526.65
2022-11-27T02:27:25.837Z,526.11
2022-11-27T02:28:25.841Z,526.47
2022-11-27T02:29:25.842Z,526.53
2022-11-27T02:30:25.843Z,527.92
2022-11-27T02:31:25.922Z,528.44
2022-11-27T02:32:25.844Z,529.24
2022-11-27T02:33:25.850Z,530.25
2022-11-27T02:34:25.858Z,530.43
2022-11-27T02:35:25.851Z,531.63
2022-11-27T02:36:25.858Z,531.39
2022-11-27T02:37:25.858Z,532.2
2022-11-27T02:38:25.855Z,532.38
2022-11-27T02:39:25.860Z,531.33
2022-11-27T02:40:25.869Z,531.85
2022-11-27T02:41:25.867Z,531.77
2022-11-27T02:42:25.985Z,532.14
2022-11-27T02:43:25.863Z,532.71
2022-11-27T02:44:25.860Z,532.03
2022-11-27T02:45:25.867Z,533.61
2022-11-27T02:46:25.909Z,533.99
2022-11-27T02:47:25.878Z,533.99
2022-11-27T02:48:25.867Z,534.53
2022-11-27T02:49:25.876Z,535.22
2022-11-27T02:50:25.876Z,534.72
2022-11-27T02:51:25.880Z,535.06
2022-11-27T02:52:25.886Z,535.08
2022-11-27T02:53:25.876Z,535.09
2022-11-27T02:54:25.875Z,535.7
2022-11-27T02:55:25.892Z,534.46
2022-11-27T02:56:25.885Z,534.82
2022-11-27T02:57:25.881Z,533.99
2022-11-27T02:58:31.778Z,534.03
2022-11-27T02:59:26.018Z,533
2022-11-27T03:00:25.945Z,532.16
2022-11-27T03:01:25.932Z,532.06
2022-11-27T03:02:25.925Z,531.01
2022-11-27T03:03:25.889Z,531.23
2022-11-27T03:04:25.900Z,531.13
2022-11-27T03:05:25.897Z,530.29
2022-11-27T03:06:25.910Z,529.27
2022-11-27T03:07:25.947Z,529.05
2022-11-27T03:08:25.900Z,529.32
2022-11-27T03:09:25.899Z,528.62
2022-11-27T03:10:25.910Z,528.07
2022-11-27T03:11:25.909Z,527.41
2022-11-27T03:12:25.903Z,526.45
2022-11-27T03:13:25.915Z,525.04
2022-11-27T03:14:25.920Z,523.7
2022-11-27T03:15:26.036Z,522.79
2022-11-27T03:16:25.947Z,521.24
2022-11-27T03:17:25.918Z,520.27
2022-11-27T03:18:25.919Z,518.83
2022-11-27T03:19:25.926Z,518.44
2022-11-27T03:20:25.919Z,517.34
2022-11-27T03:21:25.925Z,517.27
2022-11-27T03:22:25.927Z,515.86
2022-11-27T03:23:25.928Z,516.16
2022-11-27T03:24:25.929Z,515.34
2022-11-27T03:25:25.937Z,515.14
2022-11-27T03:26:25.961Z,514.99
2022-11-27T03:27:25.938Z,513.82
2022-11-27T03:28:25.928Z,512.87
2022-11-27T03:29:25.931Z,511.48
2022-11-27T03:30:25.940Z,510.7
2022-11-27T03:31:26.128Z,509.08
2022-11-27T03:32:25.942Z,508.56
2022-11-27T03:33:25.944Z,508.26
2022-11-27T03:34:25.938Z,507.64
2022-11-27T03:35:25.961Z,507.9
2022-11-27T03:36:29.065Z,506.45
2022-11-27T03:37:25.943Z,506.9
2022-11-27T03:38:25.954Z,507.13
2022-11-27T03:39:25.963Z,507.05
2022-11-27T03:40:25.952Z,506.29
2022-11-27T03:41:25.950Z,507.07
2022-11-27T03:42:25.959Z,505.91
2022-11-27T03:43:25.959Z,506.12
2022-11-27T03:44:25.987Z,505.73
2022-11-27T03:45:25.965Z,505.14
2022-11-27T03:46:25.991Z,502.67
2022-11-27T03:47:28.963Z,501.85
2022-11-27T03:48:25.968Z,498.67
2022-11-27T03:49:25.996Z,496.9
2022-11-27T03:50:25.969Z,495.42
2022-11-27T03:51:25.966Z,493.85
2022-11-27T03:52:25.969Z,492.24
2022-11-27T03:53:25.975Z,491.5
2022-11-27T03:54:26.031Z,489.66
2022-11-27T03:55:25.975Z,487.87
2022-11-27T03:56:25.973Z,486.42
2022-11-27T03:57:25.987Z,485.55
2022-11-27T03:58:28.741Z,484.15
2022-11-27T03:59:26.002Z,483.32
2022-11-27T04:00:25.984Z,482.08
2022-11-27T04:01:26.042Z,480.9
2022-11-27T04:02:25.990Z,480.28
2022-11-27T04:03:26.169Z,479.28
2022-11-27T04:04:26.017Z,478.73
2022-11-27T04:05:25.993Z,478.13
2022-11-27T04:06:25.993Z,477.74
2022-11-27T04:07:26.027Z,476.03
2022-11-27T04:08:25.997Z,474.44
2022-11-27T04:09:27.942Z,475.05
2022-11-27T04:10:26.031Z,473.04
2022-11-27T04:11:26.003Z,471.99
2022-11-27T04:12:26.003Z,471.36
2022-11-27T04:13:25.998Z,469.91
2022-11-27T04:14:26.010Z,469.68
2022-11-27T04:15:26.008Z,468.86
2022-11-27T04:16:26.065Z,467.61
2022-11-27T04:17:26.012Z,467.22
2022-11-27T04:18:26.007Z,467.01
2022-11-27T04:19:26.137Z,465.82
2022-11-27T04:20:26.018Z,465.18
2022-11-27T04:21:26.023Z,466.34
2022-11-27T04:22:26.015Z,465.45
2022-11-27T04:23:26.020Z,464.21
2022-11-27T04:24:26.016Z,464.28
2022-11-27T04:25:26.021Z,462.24
2022-11-27T04:26:26.025Z,462.41
2022-11-27T04:27:26.032Z,460.98
2022-11-27T04:28:26.029Z,461.24
2022-11-27T04:29:26.023Z,459.94
2022-11-27T04:30:26.031Z,458.94
2022-11-27T04:31:26.103Z,458.73
2022-11-27T04:32:26.044Z,457.97
2022-11-27T04:33:26.038Z,456.76
2022-11-27T04:34:26.039Z,455.24
2022-11-27T04:35:32.034Z,453.35
2022-11-27T04:36:26.216Z,452.12
2022-11-27T04:37:26.037Z,450.86
2022-11-27T04:38:26.041Z,450.08
2022-11-27T04:39:26.039Z,448.72
2022-11-27T04:40:26.043Z,448.1
2022-11-27T04:41:26.052Z,447.03
2022-11-27T04:42:26.049Z,445.84
2022-11-27T04:43:26.047Z,445.81
2022-11-27T04:44:26.048Z,444.8
2022-11-27T04:45:26.049Z,444.04
2022-11-27T04:46:26.100Z,443.25
2022-11-27T04:47:26.051Z,443.08
2022-11-27T04:48:26.056Z,442.08
2022-11-27T04:49:26.057Z,441.82
2022-11-27T04:50:26.065Z,442.36
2022-11-27T04:51:26.066Z,442.19
2022-11-27T04:52:26.177Z,442.64
2022-11-27T04:53:26.072Z,442.04
2022-11-27T04:54:26.070Z,442.25
2022-11-27T04:55:26.071Z,442.26
2022-11-27T04:56:26.075Z,442.87
2022-11-27T04:57:26.068Z,443.76
2022-11-27T04:58:26.079Z,444.53
2022-11-27T04:59:26.071Z,444.33
2022-11-27T05:00:26.123Z,445.7
2022-11-27T05:01:26.151Z,446.5
2022-11-27T05:02:26.120Z,446.25
2022-11-27T05:03:26.083Z,448.34
2022-11-27T05:04:26.081Z,448.75
2022-11-27T05:05:26.088Z,449.24
2022-11-27T05:06:26.083Z,449.97
2022-11-27T05:07:26.196Z,450.53
2022-11-27T05:08:26.207Z,450.52
2022-11-27T05:09:26.096Z,450.14
2022-11-27T05:10:26.096Z,450.14
2022-11-27T05:11:26.122Z,449.51
2022-11-27T05:12:26.112Z,449.28
2022-11-27T05:13:26.099Z,449.71
2022-11-27T05:14:26.132Z,448.77
2022-11-27T05:15:26.119Z,448.98
2022-11-27T05:16:26.134Z,448.62
2022-11-27T05:17:26.104Z,448.16
2022-11-27T05:18:26.114Z,447.88
2022-11-27T05:19:26.115Z,447.07
2022-11-27T05:20:26.107Z,446.5
2022-11-27T05:21:26.116Z,445.84
2022-11-27T05:22:26.115Z,446.2
2022-11-27T05:23:26.118Z,444.59
2022-11-27T05:24:26.240Z,444.13
2022-11-27T05:25:26.113Z,443.93
2022-11-27T05:26:26.115Z,444.01
2022-11-27T05:27:26.114Z,442.35
2022-11-27T05:28:26.951Z,441.88
2022-11-27T05:29:26.126Z,441.9
2022-11-27T05:30:26.125Z,441.67
2022-11-27T05:31:26.171Z,441.31
2022-11-27T05:32:26.130Z,441.76
2022-11-27T05:33:26.125Z,441.06
2022-11-27T05:34:26.127Z,440.92
2022-11-27T05:35:26.129Z,440.69
2022-11-27T05:36:26.131Z,440.7
2022-11-27T05:37:26.137Z,441.22
2022-11-27T05:38:26.136Z,440.87
2022-11-27T05:39:26.140Z,441.06
2022-11-27T05:40:26.253Z,441.47
2022-11-27T05:41:26.136Z,441.88
2022-11-27T05:42:26.169Z,442.04
2022-11-27T05:43:26.140Z,442.19
2022-11-27T05:44:26.150Z,441.91
2022-11-27T05:45:26.149Z,441.3
2022-11-27T05:46:26.181Z,441.22
2022-11-27T05:47:26.148Z,441.3
2022-11-27T05:48:26.150Z,441.24
2022-11-27T05:49:26.149Z,440.89
2022-11-27T05:50:26.156Z,440.91
2022-11-27T05:51:26.161Z,441.91
2022-11-27T05:52:26.164Z,440.86
2022-11-27T05:53:26.159Z,440.62
2022-11-27T05:54:26.159Z,440.2
2022-11-27T05:55:26.159Z,440.2
2022-11-27T05:56:26.285Z,439.95
2022-11-27T05:57:26.165Z,439.93
2022-11-27T05:58:26.167Z,439.49
2022-11-27T05:59:26.173Z,439.95
2022-11-27T06:00:26.171Z,438.67
2022-11-27T06:01:26.172Z,438.94
2022-11-27T06:02:29.283Z,437.73
2022-11-27T06:03:28.963Z,437.29
2022-11-27T06:04:26.183Z,435.81
2022-11-27T06:05:26.186Z,434.99
2022-11-27T06:06:26.198Z,434.29
2022-11-27T06:07:26.247Z,433.07
2022-11-27T06:08:26.192Z,432.47
2022-11-27T06:09:26.186Z,432.39
2022-11-27T06:10:26.193Z,432.3
2022-11-27T06:11:26.192Z,432.44
2022-11-27T06:12:26.306Z,432.74
2022-11-27T06:13:26.194Z,433.16
2022-11-27T06:14:29.338Z,432.5
2022-11-27T06:15:26.195Z,433.12
2022-11-27T06:16:26.279Z,432.91
2022-11-27T06:17:26.201Z,433.36
2022-11-27T06:18:26.197Z,433.16
2022-11-27T06:19:26.197Z,432.73
2022-11-27T06:20:26.255Z,431.87
2022-11-27T06:21:26.202Z,431.39
2022-11-27T06:22:26.208Z,431.19
2022-11-27T06:23:26.219Z,430.55
2022-11-27T06:24:26.210Z,428.87
2022-11-27T06:25:28.009Z,428.55
2022-11-27T06:26:26.208Z,427.78
2022-11-27T06:27:26.214Z,426.86
2022-11-27T06:28:26.337Z,427.12
2022-11-27T06:29:26.219Z,426.89
2022-11-27T06:30:26.221Z,426.88
2022-11-27T06:31:26.266Z,426.92
2022-11-27T06:32:26.220Z,426.49
2022-11-27T06:33:26.225Z,426.27
2022-11-27T06:34:26.225Z,426.44
2022-11-27T06:35:26.228Z,425.43
2022-11-27T06:36:29.011Z,424.91
2022-11-27T06:37:26.230Z,425.37
2022-11-27T06:38:26.235Z,424.98
2022-11-27T06:39:26.241Z,425.02
2022-11-27T06:40:26.238Z,424.35
2022-11-27T06:41:26.230Z,425.62
2022-11-27T06:42:26.256Z,425.83
2022-11-27T06:43:26.235Z,426.5
2022-11-27T06:44:26.366Z,426.03
2022-11-27T06:45:26.274Z,427.31
2022-11-27T06:46:26.247Z,426.8
2022-11-27T06:47:29.011Z,428.03
2022-11-27T06:48:26.240Z,428.46
2022-11-27T06:49:26.242Z,427.01
2022-11-27T06:50:26.249Z,426.53
2022-11-27T06:51:26.257Z,426.67
2022-11-27T06:52:26.256Z,426.82
2022-11-27T06:53:26.256Z,425.49
2022-11-27T06:54:26.254Z,425.13
2022-11-27T06:55:26.273Z,424.91
2022-11-27T06:56:26.259Z,423.71
2022-11-27T06:57:26.270Z,422.97
2022-11-27T06:58:30.792Z,421.68
2022-11-27T06:59:26.256Z,421.64
2022-11-27T07:00:26.390Z,422.03
2022-11-27T07:01:26.315Z,422.16
2022-11-27T07:02:26.315Z,421.5
2022-11-27T07:03:26.270Z,423
2022-11-27T07:04:26.275Z,422.79
2022-11-27T07:05:26.271Z,423.11
2022-11-27T07:06:26.268Z,424.21
2022-11-27T07:07:26.295Z,424.6
2022-11-27T07:08:26.281Z,424.96
2022-11-27T07:09:26.279Z,425.22
2022-11-27T07:10:26.279Z,426.94
2022-11-27T07:11:26.286Z,427.07
2022-11-27T07:12:26.286Z,427.31
2022-11-27T07:13:26.291Z,427.48
2022-11-27T07:14:26.289Z,426.81
2022-11-27T07:15:26.290Z,427.01
2022-11-27T07:16:26.474Z,427.18
2022-11-27T07:17:26.297Z,428.44
2022-11-27T07:18:26.288Z,427.76
2022-11-27T07:19:26.295Z,428.35
2022-11-27T07:20:26.296Z,428.61
2022-11-27T07:21:26.301Z,429.27
2022-11-27T07:22:26.296Z,428.84
2022-11-27T07:23:26.309Z,427.67
2022-11-27T07:24:26.300Z,427.46
2022-11-27T07:25:26.299Z,426.62
2022-11-27T07:26:26.329Z,426.86
2022-11-27T07:27:26.306Z,427.41
2022-11-27T07:28:26.313Z,427.79
2022-11-27T07:29:26.313Z,428.17
2022-11-27T07:30:26.322Z,429.04
2022-11-27T07:31:26.344Z,430.53
2022-11-27T07:32:26.437Z,431.34
2022-11-27T07:33:26.321Z,431.53
2022-11-27T07:34:26.313Z,431.98
2022-11-27T07:35:26.319Z,432.13
2022-11-27T07:36:26.330Z,432.37
2022-11-27T07:37:26.323Z,431.76
2022-11-27T07:38:26.326Z,432.52
2022-11-27T07:39:46.569Z,431.91
2022-11-27T07:40:26.343Z,432.72
2022-11-27T07:41:30.748Z,433.56
2022-11-27T07:42:41.657Z,432.69
2022-11-27T07:43:26.336Z,433.99
2022-11-27T07:44:26.328Z,434.77
2022-11-27T07:45:26.404Z,436.02
2022-11-27T07:46:26.337Z,436.04
2022-11-27T07:47:26.334Z,437.96
2022-11-27T07:48:26.468Z,437.94
2022-11-27T07:49:26.339Z,439.37
2022-11-27T07:50:26.382Z,440.2
2022-11-27T07:51:26.341Z,441.02
2022-11-27T07:52:26.343Z,440.54
2022-11-27T07:53:26.344Z,441.22
2022-11-27T07:54:26.348Z,442.24
2022-11-27T07:55:26.355Z,442.86
2022-11-27T07:56:26.347Z,443.1
2022-11-27T07:57:26.358Z,444.19
2022-11-27T07:58:26.351Z,444.35
2022-11-27T07:59:26.359Z,445.25
2022-11-27T08:00:26.399Z,446.08
2022-11-27T08:01:26.421Z,447.33
2022-11-27T08:02:26.366Z,448.35
2022-11-27T08:03:26.360Z,450.25
2022-11-27T08:04:26.534Z,452.35
2022-11-27T08:05:26.367Z,454
2022-11-27T08:06:26.373Z,455.84
2022-11-27T08:07:26.457Z,458.13
2022-11-27T08:08:26.373Z,459.87
2022-11-27T08:09:26.366Z,462.26
2022-11-27T08:10:26.438Z,462.71
2022-11-27T08:11:26.380Z,464.68
2022-11-27T08:12:26.390Z,465.24
2022-11-27T08:13:26.382Z,465.45
2022-11-27T08:14:26.376Z,466.53
2022-11-27T08:15:26.392Z,466.8
2022-11-27T08:16:26.479Z,467.65
2022-11-27T08:17:26.383Z,469.57
2022-11-27T08:18:26.387Z,470.44
2022-11-27T08:19:26.394Z,471.91
2022-11-27T08:20:26.525Z,473.37
2022-11-27T08:21:26.392Z,474.76
2022-11-27T08:22:26.397Z,475.84
2022-11-27T08:23:26.405Z,477.63
2022-11-27T08:24:26.393Z,479.28
2022-11-27T08:25:26.393Z,481.28
2022-11-27T08:26:26.402Z,482.08
2022-11-27T08:27:26.404Z,484.36
2022-11-27T08:28:26.404Z,485.23
2022-11-27T08:29:29.945Z,487.99
2022-11-27T08:30:26.665Z,489.37
2022-11-27T08:31:26.473Z,491.51
2022-11-27T08:32:26.403Z,491.61
2022-11-27T08:33:26.418Z,493.27
2022-11-27T08:34:26.408Z,493.9
2022-11-27T08:35:26.408Z,494.84
2022-11-27T08:36:26.585Z,495.32
2022-11-27T08:37:26.412Z,497.01
2022-11-27T08:38:26.420Z,498.84
2022-11-27T08:39:26.423Z,500.2
2022-11-27T08:40:26.424Z,501
2022-11-27T08:41:28.089Z,503.28
2022-11-27T08:42:26.432Z,504.57
2022-11-27T08:43:26.420Z,506.18
2022-11-27T08:44:26.425Z,507.37
2022-11-27T08:45:26.461Z,508.94
2022-11-27T08:46:26.428Z,509.84
2022-11-27T08:47:26.432Z,510.88
2022-11-27T08:48:26.428Z,511.84
2022-11-27T08:49:26.432Z,513.38
2022-11-27T08:50:26.448Z,513.67
2022-11-27T08:51:26.439Z,514.02
2022-11-27T08:52:29.312Z,514.57
2022-11-27T08:53:26.440Z,515.11
2022-11-27T08:54:26.438Z,515.53
2022-11-27T08:55:26.449Z,515.46
2022-11-27T08:56:26.452Z,515.99
2022-11-27T08:57:26.447Z,516.97
2022-11-27T08:58:26.443Z,516.9
2022-11-27T08:59:26.446Z,517.65
2022-11-27T09:00:28.022Z,518.05
2022-11-27T09:01:26.503Z,517.63
2022-11-27T09:02:26.453Z,519.11
2022-11-27T09:03:29.588Z,520.26
2022-11-27T09:04:26.535Z,521.73
2022-11-27T09:05:26.454Z,522.5
2022-11-27T09:06:26.463Z,522.85
2022-11-27T09:07:26.484Z,523.76
2022-11-27T09:08:26.586Z,523.51
2022-11-27T09:09:26.461Z,524.34
2022-11-27T09:10:26.471Z,524.14
2022-11-27T09:11:26.470Z,524.69
2022-11-27T09:12:26.465Z,525.11
2022-11-27T09:13:26.474Z,525.68
2022-11-27T09:14:29.557Z,526.94
2022-11-27T09:15:26.604Z,527.74
2022-11-27T09:16:26.481Z,529.33
2022-11-27T09:17:26.537Z,530.63
2022-11-27T09:18:26.481Z,531.74
2022-11-27T09:19:26.479Z,533.62
2022-11-27T09:20:26.481Z,536.37
2022-11-27T09:21:26.479Z,537.3
2022-11-27T09:22:26.487Z,540.52
2022-11-27T09:23:26.486Z,541.75
2022-11-27T09:24:26.599Z,543.79
2022-11-27T09:25:29.278Z,545.33
2022-11-27T09:26:26.500Z,547.38
2022-11-27T09:27:26.523Z,548.55
2022-11-27T09:28:31.082Z,550.07
2022-11-27T09:29:26.507Z,551
2022-11-27T09:30:26.502Z,551.02
2022-11-27T09:31:26.673Z,550.27
2022-11-27T09:32:26.542Z,550.97
2022-11-27T09:33:26.540Z,550.92
2022-11-27T09:34:26.504Z,549.58
2022-11-27T09:35:26.579Z,550.01
2022-11-27T09:36:26.519Z,550.18
2022-11-27T09:37:26.512Z,549.71
2022-11-27T09:38:26.511Z,550.37
2022-11-27T09:39:26.514Z,550.12
2022-11-27T09:40:26.634Z,550.9
2022-11-27T09:41:26.526Z,551.97
2022-11-27T09:42:26.521Z,552.43
2022-11-27T09:43:26.523Z,552.97
2022-11-27T09:44:26.522Z,552.94
2022-11-27T09:45:26.595Z,553.29
2022-11-27T09:46:26.616Z,553.51
2022-11-27T09:47:26.529Z,553.86
2022-11-27T09:48:26.576Z,554.59
2022-11-27T09:49:26.534Z,555.53
2022-11-27T09:50:26.529Z,556.89
2022-11-27T09:51:26.531Z,558.34
2022-11-27T09:52:26.544Z,560.17
2022-11-27T09:53:26.529Z,560.97
2022-11-27T09:54:26.539Z,562.64
2022-11-27T09:55:26.537Z,563.42
2022-11-27T09:56:26.653Z,563.79
2022-11-27T09:57:26.543Z,564.16
2022-11-27T09:58:26.549Z,566.35
2022-11-27T09:59:26.548Z,570.75
2022-11-27T10:00:26.542Z,576.21
2022-11-27T10:01:32.370Z,580.5
2022-11-27T10:02:26.636Z,581.78
2022-11-27T10:03:26.589Z,582.41
2022-11-27T10:04:26.560Z,580.69
2022-11-27T10:05:26.667Z,578.65
2022-11-27T10:06:26.581Z,578.28
2022-11-27T10:07:26.923Z,577.69
2022-11-27T10:08:26.556Z,576.74
2022-11-27T10:09:26.563Z,576.6
2022-11-27T10:10:26.563Z,576.36
2022-11-27T10:11:26.565Z,576.78
2022-11-27T10:12:26.709Z,574.9
2022-11-27T10:13:26.641Z,575.09
2022-11-27T10:14:26.571Z,575.28
2022-11-27T10:15:26.574Z,575.76
2022-11-27T10:16:26.622Z,575.6
2022-11-27T10:17:26.592Z,575.54
2022-11-27T10:18:26.578Z,575.68
2022-11-27T10:19:26.578Z,576.8
2022-11-27T10:20:26.572Z,577.35
2022-11-27T10:21:26.574Z,578.51
2022-11-27T10:22:26.623Z,579.86
2022-11-27T10:23:26.605Z,581.13
2022-11-27T10:24:26.584Z,582.4
2022-11-27T10:25:26.580Z,583.82
2022-11-27T10:26:26.591Z,585.7
2022-11-27T10:27:27.092Z,586.44
2022-11-27T10:28:26.705Z,586.27
2022-11-27T10:29:26.596Z,587.79
2022-11-27T10:30:26.626Z,591.26
2022-11-27T10:31:26.645Z,594.05
2022-11-27T10:32:53.924Z,597.96
2022-11-27T10:33:26.594Z,601.6
2022-11-27T10:34:26.604Z,605.02
2022-11-27T10:35:26.613Z,607.77
2022-11-27T10:36:26.610Z,609.99
2022-11-27T10:37:26.629Z,610.84
2022-11-27T10:38:26.634Z,610.28
2022-11-27T10:39:26.607Z,609.74
2022-11-27T10:40:26.609Z,608.79
2022-11-27T10:41:49.105Z,609.14
2022-11-27T10:42:26.640Z,608.63
2022-11-27T10:43:26.617Z,608.03
2022-11-27T10:44:26.747Z,609.42
2022-11-27T10:45:26.617Z,613.45
2022-11-27T10:46:26.644Z,618.15
2022-11-27T10:47:29.771Z,622.61
2022-11-27T10:48:26.624Z,627.25
2022-11-27T10:49:26.627Z,633.33
2022-11-27T10:50:26.625Z,637.34
2022-11-27T10:51:26.625Z,639.56
2022-11-27T10:52:26.650Z,640.1
2022-11-27T10:53:26.624Z,639.38
2022-11-27T10:54:26.625Z,638.15
2022-11-27T10:55:26.649Z,636.36
2022-11-27T10:56:26.629Z,635.83
2022-11-27T10:57:27.191Z,634.09
2022-11-27T10:58:26.641Z,634.26
2022-11-27T10:59:30.038Z,632.97
2022-11-27T11:00:26.759Z,631.7
2022-11-27T11:01:26.664Z,629.63
2022-11-27T11:02:26.686Z,628.18
2022-11-27T11:03:26.647Z,626.49
2022-11-27T11:04:41.977Z,625.15
2022-11-27T11:06:24.700Z,623
2022-11-27T11:07:24.201Z,621.72
2022-11-27T11:08:24.136Z,620.81
2022-11-27T11:09:24.144Z,620.22
2022-11-27T11:10:24.137Z,619.48
2022-11-27T11:11:24.150Z,619.67
2022-11-27T11:12:24.168Z,620
2022-11-27T11:13:24.152Z,620.79
2022-11-27T11:14:24.148Z,621.35
2022-11-27T11:15:24.145Z,621.45
2022-11-27T11:16:34.722Z,622.21
2022-11-27T11:17:24.364Z,621.84
2022-11-27T11:18:24.153Z,622.16
2022-11-27T11:19:24.162Z,621.96
2022-11-27T11:20:24.154Z,622.52
2022-11-27T11:21:24.158Z,622.72
2022-11-27T11:22:24.166Z,622.89
2022-11-27T11:23:24.168Z,623.8
2022-11-27T11:24:24.162Z,623.73
2022-11-27T11:25:24.169Z,625.02
2022-11-27T11:26:24.173Z,626.66
2022-11-27T11:27:24.172Z,626.1
2022-11-27T11:28:24.189Z,626.8
2022-11-27T11:29:24.183Z,628
2022-11-27T11:30:24.172Z,628.42
2022-11-27T11:31:24.257Z,628.66
2022-11-27T11:32:24.171Z,629.64
2022-11-27T11:33:24.304Z,630.37
2022-11-27T11:34:24.181Z,630.73
2022-11-27T11:35:24.183Z,631
2022-11-27T11:36:24.187Z,632.86
2022-11-27T11:37:24.182Z,633.86
2022-11-27T11:38:24.188Z,634.09
2022-11-27T11:39:24.183Z,635.32
2022-11-27T11:40:24.185Z,635.91
2022-11-27T11:41:24.193Z,636.6
2022-11-27T11:42:24.212Z,636.91
2022-11-27T11:43:24.197Z,637.46
2022-11-27T11:44:24.240Z,638.48
2022-11-27T11:45:26.505Z,638.28
2022-11-27T11:46:24.230Z,639.17
2022-11-27T11:47:24.204Z,639.95
2022-11-27T11:48:24.214Z,640.43
2022-11-27T11:49:24.320Z,640.95
2022-11-27T11:50:24.214Z,642.1
2022-11-27T11:51:29.104Z,643.21
2022-11-27T11:52:24.214Z,644.35
2022-11-27T11:53:24.224Z,644.08
2022-11-27T11:54:24.207Z,645
2022-11-27T11:55:24.218Z,645.48
2022-11-27T11:56:24.227Z,646.06
2022-11-27T11:57:24.253Z,646.52
2022-11-27T11:58:24.220Z,647.94
2022-11-27T11:59:24.219Z,649.72
2022-11-27T12:00:29.695Z,651.51
2022-11-27T12:01:30.572Z,652.91
2022-11-27T12:02:30.658Z,654.01
2022-11-27T12:03:30.556Z,655.03
2022-11-27T12:04:30.729Z,656.53
2022-11-27T12:05:30.564Z,657.46
2022-11-27T12:06:30.563Z,658.28
2022-11-27T12:07:30.625Z,659.81
2022-11-27T12:08:30.568Z,661.33
2022-11-27T12:09:30.568Z,661.55
2022-11-27T12:10:30.573Z,661.33
2022-11-27T12:11:30.574Z,662.03
2022-11-27T12:12:30.577Z,662.46
2022-11-27T12:13:33.289Z,661.77
2022-11-27T12:14:30.581Z,662.29
2022-11-27T12:15:30.585Z,661.12
2022-11-27T12:16:30.690Z,661.45
2022-11-27T12:17:30.583Z,661.46
2022-11-27T12:18:30.581Z,662.58
2022-11-27T12:19:30.581Z,663.53
2022-11-27T12:20:35.966Z,663.79
2022-11-27T12:21:30.700Z,664.16
2022-11-27T12:22:30.583Z,664.41
2022-11-27T12:23:30.589Z,664.76
2022-11-27T12:24:30.587Z,665.27
2022-11-27T12:25:30.590Z,664.88
2022-11-27T12:26:30.592Z,664.36
2022-11-27T12:27:30.604Z,663.25
2022-11-27T12:28:30.616Z,663.83
2022-11-27T12:29:30.599Z,664.26
2022-11-27T12:30:30.604Z,664.67
2022-11-27T12:31:30.677Z,664.79
2022-11-27T12:32:30.604Z,665.54